createdAt,value
2023-04-12T00:01:34.364Z,99550.13
2023-04-12T00:04:04.829Z,99539.00
2023-04-12T00:06:33.401Z,99533.44
2023-04-12T00:09:00.754Z,99533.78
2023-04-12T00:11:28.852Z,99528.41
2023-04-12T00:13:56.225Z,99522.63
2023-04-12T00:16:23.525Z,99515.22
2023-04-12T00:18:51.881Z,99530.16
2023-04-12T00:21:19.988Z,99524.69
2023-04-12T00:23:47.838Z,99517.66
2023-04-12T00:26:15.016Z,99520.78
2023-04-12T00:28:42.544Z,99522.94
2023-04-12T00:31:09.610Z,99511.59
2023-04-12T00:33:36.593Z,99521.63
2023-04-12T00:36:03.757Z,99507.69
2023-04-12T00:38:30.728Z,99492.13
2023-04-12T00:40:58.005Z,99506.03
2023-04-12T00:43:28.037Z,99485.44
2023-04-12T00:45:58.148Z,99483.44
2023-04-12T00:48:25.236Z,99496.25
2023-04-12T00:50:55.843Z,99490.47
2023-04-12T00:53:23.919Z,99494.38
2023-04-12T00:55:51.704Z,99500.78
2023-04-12T00:58:19.076Z,99516.97
2023-04-12T01:00:50.659Z,99532.22
2023-04-12T01:03:23.814Z,99527.47
2023-04-12T01:05:56.099Z,99527.78
2023-04-12T01:08:26.442Z,99523.66
2023-04-12T01:10:56.556Z,99517.47
2023-04-12T01:13:24.833Z,99521.38
2023-04-12T01:15:58.561Z,99523.34
2023-04-12T01:18:28.452Z,99526.66
2023-04-12T01:20:58.112Z,99511.72
2023-04-12T01:23:28.803Z,99513.38
2023-04-12T01:25:59.163Z,99512.44
2023-04-12T01:28:29.574Z,99508.91
2023-04-12T01:30:56.685Z,99500.56
2023-04-12T01:33:24.617Z,99507.47
2023-04-12T01:35:52.117Z,99505.00
2023-04-12T01:38:19.553Z,99498.63
2023-04-12T01:40:46.600Z,99513.66
2023-04-12T01:43:16.258Z,99513.13
2023-04-12T01:45:43.486Z,99512.00
2023-04-12T01:48:11.362Z,99507.28
2023-04-12T01:50:41.467Z,99507.56
2023-04-12T01:53:11.536Z,99515.91
2023-04-12T01:55:40.112Z,99510.69
2023-04-12T01:58:08.157Z,99510.34
2023-04-12T02:00:37.372Z,99509.56
2023-04-12T02:03:06.104Z,99508.19
2023-04-12T02:05:34.642Z,99510.69
2023-04-12T02:08:02.965Z,99502.63
2023-04-12T02:10:30.909Z,99518.50
2023-04-12T02:12:59.528Z,99511.50
2023-04-12T02:15:27.651Z,99519.63
2023-04-12T02:17:55.017Z,99509.31
2023-04-12T02:20:22.780Z,99506.88
2023-04-12T02:22:52.090Z,99493.44
2023-04-12T02:25:20.630Z,99507.06
2023-04-12T02:27:49.027Z,99498.19
2023-04-12T02:30:16.214Z,99491.31
2023-04-12T02:32:44.523Z,99489.34
2023-04-12T02:35:12.669Z,99486.56
2023-04-12T02:37:39.614Z,99479.88
2023-04-12T02:40:07.427Z,99488.81
2023-04-12T02:42:34.409Z,99480.47
2023-04-12T02:45:01.410Z,99482.13
2023-04-12T02:47:29.632Z,99475.72
2023-04-12T02:49:56.829Z,99474.59
2023-04-12T02:52:23.755Z,99481.28
2023-04-12T02:54:51.516Z,99472.94
2023-04-12T02:57:18.446Z,99467.69
2023-04-12T02:59:45.350Z,99473.78
2023-04-12T03:02:12.360Z,99480.47
2023-04-12T03:04:40.367Z,99462.66
2023-04-12T03:07:07.396Z,99474.06
2023-04-12T03:09:35.129Z,99470.47
2023-04-12T03:12:02.513Z,99479.34
2023-04-12T03:14:29.430Z,99474.41
2023-04-12T03:16:56.808Z,99476.84
2023-04-12T03:19:23.827Z,99483.06
2023-04-12T03:21:51.467Z,99475.22
2023-04-12T03:24:18.395Z,99472.44
2023-04-12T03:26:45.338Z,99465.72
2023-04-12T03:29:12.266Z,99468.84
2023-04-12T03:31:39.333Z,99466.06
2023-04-12T03:34:07.115Z,99468.31
2023-04-12T03:36:34.172Z,99462.44
2023-04-12T03:39:01.212Z,99473.38
2023-04-12T03:41:28.894Z,99459.47
2023-04-12T03:43:56.009Z,99459.13
2023-04-12T03:46:23.175Z,99458.84
2023-04-12T03:48:50.404Z,99455.88
2023-04-12T03:51:17.313Z,99458.41
2023-04-12T03:53:44.226Z,99455.34
2023-04-12T03:56:12.869Z,99457.63
2023-04-12T03:58:40.126Z,99458.41
2023-04-12T04:01:07.279Z,99448.13
2023-04-12T04:03:35.445Z,99440.94
2023-04-12T04:06:02.809Z,99443.38
2023-04-12T04:08:30.198Z,99440.28
2023-04-12T04:10:57.659Z,99431.75
2023-04-12T04:13:24.615Z,99434.53
2023-04-12T04:15:52.379Z,99433.91
2023-04-12T04:18:19.375Z,99431.44
2023-04-12T04:20:46.341Z,99438.66
2023-04-12T04:23:13.200Z,99443.19
2023-04-12T04:25:40.368Z,99435.66
2023-04-12T04:28:08.081Z,99441.22
2023-04-12T04:30:39.244Z,99438.75
2023-04-12T04:33:07.490Z,99440.69
2023-04-12T04:35:34.529Z,99434.53
2023-04-12T04:38:01.919Z,99431.75
2023-04-12T04:40:29.229Z,99425.16
2023-04-12T04:42:56.298Z,99428.75
2023-04-12T04:45:26.852Z,99425.66
2023-04-12T04:47:54.137Z,99430.41
2023-04-12T04:50:23.183Z,99425.38
2023-04-12T04:52:51.316Z,99432.06
2023-04-12T04:55:18.706Z,99434.31
2023-04-12T04:57:45.789Z,99429.56
2023-04-12T05:00:14.410Z,99428.53
2023-04-12T05:02:43.189Z,99432.69
2023-04-12T05:05:11.083Z,99432.97
2023-04-12T05:07:38.940Z,99432.16
2023-04-12T05:10:06.471Z,99430.19
2023-04-12T05:12:34.438Z,99429.38
2023-04-12T05:17:32.332Z,99427.72
2023-04-12T05:19:59.635Z,99434.44
2023-04-12T05:22:27.088Z,99447.72
2023-04-12T05:24:53.988Z,99440.28
2023-04-12T05:27:21.097Z,99435.56
2023-04-12T05:29:48.085Z,99434.44
2023-04-12T05:32:15.082Z,99421.66
2023-04-12T05:34:42.640Z,99422.47
2023-04-12T05:37:09.686Z,99426.09
2023-04-12T05:39:36.709Z,99420.81
2023-04-12T05:42:03.751Z,99425.84
2023-04-12T05:44:30.755Z,99418.03
2023-04-12T05:46:57.660Z,99420.63
2023-04-12T05:49:24.580Z,99425.03
2023-04-12T05:51:51.476Z,99413.41
2023-04-12T05:54:21.423Z,99409.81
2023-04-12T05:56:48.427Z,99417.84
2023-04-12T05:59:15.329Z,99414.84
2023-04-12T06:01:44.987Z,99413.72
2023-04-12T06:04:12.227Z,99411.25
2023-04-12T06:06:39.358Z,99417.84
2023-04-12T06:09:06.375Z,99418.16
2023-04-12T06:11:34.372Z,99406.50
2023-04-12T06:14:01.793Z,99396.19
2023-04-12T06:16:28.929Z,99391.25
2023-04-12T06:18:56.339Z,99406.00
2023-04-12T06:21:23.606Z,99407.13
2023-04-12T06:23:50.557Z,99404.53
2023-04-12T06:26:18.571Z,99406.50
2023-04-12T06:28:46.019Z,99402.09
2023-04-12T06:31:13.221Z,99402.09
2023-04-12T06:33:40.197Z,99402.91
2023-04-12T06:36:07.642Z,99403.22
2023-04-12T06:38:34.725Z,99399.59
2023-04-12T06:41:01.897Z,99397.94
2023-04-12T06:43:29.050Z,99397.03
2023-04-12T06:45:57.441Z,99393.53
2023-04-12T06:48:24.622Z,99394.34
2023-04-12T06:50:51.541Z,99386.34
2023-04-12T06:53:18.559Z,99391.06
2023-04-12T06:55:45.675Z,99370.78
2023-04-12T06:58:12.718Z,99377.16
2023-04-12T07:00:39.889Z,99374.69
2023-04-12T07:03:07.201Z,99370.78
2023-04-12T07:05:34.392Z,99361.59
2023-04-12T07:08:01.561Z,99364.09
2023-04-12T07:10:28.694Z,99357.19
2023-04-12T07:12:55.993Z,99358.19
2023-04-12T07:15:22.939Z,99361.09
2023-04-12T07:17:50.072Z,99357.19
2023-04-12T07:20:18.054Z,99362.72
2023-04-12T07:22:45.262Z,99345.56
2023-04-12T07:25:12.671Z,99351.94
2023-04-12T07:27:39.984Z,99340.81
2023-04-12T07:30:07.711Z,99331.97
2023-04-12T07:32:34.820Z,99342.78
2023-04-12T07:35:02.194Z,99344.41
2023-04-12T07:37:29.217Z,99333.59
2023-04-12T07:39:56.329Z,99332.78
2023-04-12T07:42:23.466Z,99320.53
2023-04-12T07:44:51.036Z,99331.13
2023-04-12T07:47:17.979Z,99331.44
2023-04-12T07:49:45.129Z,99332.25
2023-04-12T07:52:12.179Z,99334.22
2023-04-12T07:54:39.358Z,99334.22
2023-04-12T07:57:06.631Z,99339.16
2023-04-12T07:59:34.642Z,99336.69
2023-04-12T08:02:03.461Z,99329.56
2023-04-12T08:04:30.886Z,99326.19
2023-04-12T08:06:58.007Z,99330.09
2023-04-12T08:09:25.283Z,99316.22
2023-04-12T08:11:52.609Z,99307.22
2023-04-12T08:14:23.632Z,99301.19
2023-04-12T08:16:51.148Z,99311.78
2023-04-12T08:19:19.053Z,99292.00
2023-04-12T08:21:51.884Z,99300.16
2023-04-12T08:24:20.336Z,99299.53
2023-04-12T08:26:47.424Z,99296.22
2023-04-12T08:29:14.698Z,99287.88
2023-04-12T08:31:42.589Z,99301.28
2023-04-12T08:34:11.184Z,99283.47
2023-04-12T08:36:44.601Z,99283.47
2023-04-12T08:39:15.609Z,99281.53
2023-04-12T08:41:43.642Z,99288.50
2023-04-12T08:44:11.833Z,99278.41
2023-04-12T08:46:39.016Z,99271.00
2023-04-12T08:49:06.198Z,99273.19
2023-04-12T08:51:34.770Z,99278.41
2023-04-12T08:54:01.858Z,99279.88
2023-04-12T08:56:29.926Z,99274.63
2023-04-12T08:58:58.136Z,99277.91
2023-04-12T09:01:26.223Z,99272.66
2023-04-12T09:03:53.500Z,99256.28
2023-04-12T09:06:21.111Z,99271.53
2023-04-12T09:08:51.333Z,99271.00
2023-04-12T09:11:21.510Z,99255.16
2023-04-12T09:13:48.648Z,99257.94
2023-04-12T09:16:15.918Z,99255.16
2023-04-12T09:18:46.223Z,99260.09
2023-04-12T09:21:14.559Z,99261.44
2023-04-12T09:23:41.595Z,99260.91
2023-04-12T09:26:09.793Z,99252.47
2023-04-12T09:28:37.121Z,99255.88
2023-04-12T09:31:05.236Z,99258.03
2023-04-12T09:33:41.247Z,99257.72
2023-04-12T09:36:13.950Z,99263.59
2023-04-12T09:38:43.520Z,99258.84
2023-04-12T09:41:15.027Z,99260.50
2023-04-12T09:43:42.095Z,99250.19
2023-04-12T09:46:12.262Z,99247.44
2023-04-12T09:48:41.208Z,99243.81
2023-04-12T09:51:09.048Z,99242.34
2023-04-12T09:53:39.620Z,99242.88
2023-04-12T09:56:08.845Z,99232.59
2023-04-12T09:58:37.175Z,99234.84
2023-04-12T10:01:06.032Z,99230.63
2023-04-12T10:03:34.284Z,99229.47
2023-04-12T10:06:04.023Z,99204.78
2023-04-12T10:08:40.768Z,99208.88
2023-04-12T10:11:08.053Z,99207.22
2023-04-12T10:13:36.026Z,99206.94
2023-04-12T10:16:05.936Z,99200.25
2023-04-12T10:18:36.116Z,99196.63
2023-04-12T10:21:04.116Z,99200.25
2023-04-12T10:23:34.447Z,99193.03
2023-04-12T10:26:03.109Z,99181.59
2023-04-12T10:28:31.289Z,99175.41
2023-04-12T10:30:58.748Z,99175.41
2023-04-12T10:33:27.085Z,99168.06
2023-04-12T10:35:55.332Z,99177.41
2023-04-12T10:38:25.702Z,99145.59
2023-04-12T10:40:55.990Z,99127.25
2023-04-12T10:43:23.858Z,99119.91
2023-04-12T10:45:51.382Z,99107.00
2023-04-12T10:48:21.632Z,99119.16
2023-04-12T10:50:48.792Z,99104.31
2023-04-12T10:53:20.211Z,99100.88
2023-04-12T10:55:47.612Z,99110.53
2023-04-12T10:58:17.756Z,99117.75
2023-04-12T11:00:58.201Z,99103.69
2023-04-12T11:03:26.273Z,99097.00
2023-04-12T11:05:56.943Z,99103.41
2023-04-12T11:08:24.654Z,99104.53
2023-04-12T11:10:52.017Z,99099.28
2023-04-12T11:13:21.035Z,99100.75
2023-04-12T11:15:53.978Z,99098.44
2023-04-12T11:18:22.826Z,99112.34
2023-04-12T11:20:53.234Z,99098.13
2023-04-12T11:23:20.872Z,99073.97
2023-04-12T11:25:52.632Z,99092.94
2023-04-12T11:28:28.681Z,99076.94
2023-04-12T11:30:58.272Z,99071.56
2023-04-12T11:33:28.841Z,99115.28
2023-04-12T11:35:56.390Z,99061.25
2023-04-12T11:38:24.052Z,99058.97
2023-04-12T11:40:52.034Z,99069.59
2023-04-12T11:43:20.782Z,99061.59
2023-04-12T11:45:48.819Z,99088.91
2023-04-12T11:48:18.344Z,99060.56
2023-04-12T11:50:51.858Z,99080.34
2023-04-12T11:53:27.984Z,99046.84
2023-04-12T11:55:57.000Z,99038.59
2023-04-12T11:58:27.081Z,99080.34
2023-04-12T12:00:55.644Z,99074.16
2023-04-12T12:03:27.640Z,99076.22
2023-04-12T12:05:55.653Z,99052.53
2023-04-12T12:08:25.150Z,99027.16
2023-04-12T12:11:07.306Z,99012.94
2023-04-12T12:13:39.816Z,98978.25
2023-04-12T12:16:09.012Z,98984.97
2023-04-12T12:18:40.563Z,98983.97
2023-04-12T12:21:10.515Z,99039.09
2023-04-12T12:23:37.998Z,99035.50
2023-04-12T12:26:18.542Z,99027.84
2023-04-12T12:28:50.356Z,98999.72
2023-04-12T12:31:20.694Z,98980.22
2023-04-12T12:33:48.260Z,98975.47
2023-04-12T12:36:19.011Z,98970.91
2023-04-12T12:38:46.420Z,98965.47
2023-04-12T12:41:17.412Z,98957.31
2023-04-12T12:43:46.832Z,98938.63
2023-04-12T12:46:15.035Z,98948.94
2023-04-12T12:48:42.978Z,98920.28
2023-04-12T12:51:11.203Z,98942.41
2023-04-12T12:53:39.256Z,98910.97
2023-04-12T12:56:07.504Z,98890.66
2023-04-12T12:58:35.242Z,98931.09
2023-04-12T13:01:03.156Z,98950.59
2023-04-12T13:03:31.145Z,98943.69
2023-04-12T13:05:58.733Z,98927.31
2023-04-12T13:08:26.755Z,98902.91
2023-04-12T13:10:54.438Z,98894.56
2023-04-12T13:13:22.238Z,98899.63
2023-04-12T13:15:49.840Z,98906.16
2023-04-12T13:18:17.410Z,98901.72
2023-04-12T13:20:44.736Z,98890.13
2023-04-12T13:23:12.169Z,98871.47
2023-04-12T13:25:39.731Z,98868.69
2023-04-12T13:28:07.236Z,98935.59
2023-04-12T13:30:34.488Z,98916.75
2023-04-12T13:33:02.102Z,98908.41
2023-04-12T13:35:29.544Z,98913.50
2023-04-12T13:37:56.996Z,98887.13
2023-04-12T13:40:26.090Z,98886.31
2023-04-12T13:42:53.474Z,98870.44
2023-04-12T13:45:21.672Z,98882.38
2023-04-12T13:47:48.882Z,98864.41
2023-04-12T13:50:17.704Z,98860.28
2023-04-12T13:52:44.980Z,98876.16
2023-04-12T13:55:12.343Z,98856.69
2023-04-12T13:57:40.098Z,98861.75
2023-04-12T14:00:08.399Z,98866.19
2023-04-12T14:02:36.015Z,98871.06
2023-04-12T14:05:03.522Z,98844.09
2023-04-12T14:07:31.012Z,98874.69
2023-04-12T14:09:58.375Z,98874.69
2023-04-12T14:12:26.037Z,98867.47
2023-04-12T14:14:53.251Z,98888.41
2023-04-12T14:17:20.720Z,98864.19
2023-04-12T14:19:47.970Z,98849.78
2023-04-12T14:22:15.312Z,98847.84
2023-04-12T14:24:42.496Z,98822.97
2023-04-12T14:27:09.828Z,98813.47
2023-04-12T14:29:38.231Z,98806.94
2023-04-12T14:32:05.696Z,98831.31
2023-04-12T14:34:33.056Z,98784.69
2023-04-12T14:37:00.930Z,98779.28
2023-04-12T14:39:28.436Z,98786.97
2023-04-12T14:41:57.693Z,98772.09
2023-04-12T14:44:26.359Z,98791.03
2023-04-12T14:46:53.947Z,98769.16
2023-04-12T14:49:21.257Z,98782.22
2023-04-12T14:51:48.634Z,98783.88
2023-04-12T14:54:16.302Z,98784.19
2023-04-12T14:56:52.151Z,98766.38
2023-04-12T14:59:21.421Z,98754.41
2023-04-12T15:01:49.084Z,98756.53
2023-04-12T15:04:21.604Z,98781.41
2023-04-12T15:06:49.319Z,98802.16
2023-04-12T15:09:18.058Z,98757.84
2023-04-12T15:11:47.494Z,98763.06
2023-04-12T15:14:18.036Z,98757.50
2023-04-12T15:16:47.745Z,98759.00
2023-04-12T15:19:21.233Z,98740.84
2023-04-12T15:21:51.760Z,98733.31
2023-04-12T15:24:19.834Z,98755.88
2023-04-12T15:26:48.915Z,98739.53
2023-04-12T15:29:17.895Z,98744.59
2023-04-12T15:31:45.869Z,98733.16
2023-04-12T15:34:14.238Z,98734.28
2023-04-12T15:36:43.699Z,98738.22
2023-04-12T15:39:11.818Z,98747.38
2023-04-12T15:41:40.459Z,98726.94
2023-04-12T15:44:11.670Z,98734.78
2023-04-12T15:46:40.360Z,98722.84
2023-04-12T15:49:07.855Z,98721.69
2023-04-12T15:51:36.144Z,98728.41
2023-04-12T15:54:20.063Z,98726.09
2023-04-12T15:56:47.331Z,98713.69
2023-04-12T15:59:15.275Z,98718.28
2023-04-12T16:01:43.043Z,98719.41
2023-04-12T16:04:11.778Z,98712.53
2023-04-12T16:06:48.373Z,98699.44
2023-04-12T16:09:16.241Z,98692.59
2023-04-12T16:11:45.111Z,98692.59
2023-04-12T16:14:14.079Z,98683.44
2023-04-12T16:16:42.261Z,98681.47
2023-04-12T16:19:11.196Z,98686.72
2023-04-12T16:21:50.156Z,98686.03
2023-04-12T16:24:18.842Z,98678.03
2023-04-12T16:26:47.802Z,98673.44
2023-04-12T16:29:15.811Z,98675.75
2023-04-12T16:31:44.149Z,98671.81
2023-04-12T16:34:13.449Z,98667.41
2023-04-12T16:36:44.623Z,98657.94
2023-04-12T16:39:14.547Z,98668.84
2023-04-12T16:41:43.113Z,98668.03
2023-04-12T16:44:12.595Z,98660.53
2023-04-12T16:46:48.046Z,98660.88
2023-04-12T16:49:18.322Z,98639.25
2023-04-12T16:51:48.756Z,98637.47
2023-04-12T16:54:17.015Z,98648.59
2023-04-12T16:56:44.861Z,98642.88
2023-04-12T16:59:21.875Z,98630.09
2023-04-12T17:04:48.387Z,98628.34
2023-04-12T17:07:51.981Z,98621.44
2023-04-12T17:10:30.081Z,98618.84
2023-04-12T17:13:41.963Z,98614.75
2023-04-12T17:16:11.675Z,98588.59
2023-04-12T17:18:54.192Z,98577.00
2023-04-12T17:21:23.345Z,98572.91
2023-04-12T17:23:51.237Z,98576.50
2023-04-12T17:26:44.046Z,98576.50
2023-04-12T17:29:12.857Z,98585.47
2023-04-12T17:31:55.088Z,98594.97
2023-04-12T17:34:34.375Z,98599.72
2023-04-12T17:37:16.914Z,98601.34
2023-04-12T17:39:57.685Z,98606.06
2023-04-12T17:42:29.470Z,98603.66
2023-04-12T17:45:04.984Z,98600.03
2023-04-12T17:47:35.767Z,98603.66
2023-04-12T17:50:06.686Z,98599.38
2023-04-12T17:52:53.668Z,98596.13
2023-04-12T17:55:39.625Z,98595.63
2023-04-12T17:58:08.513Z,98606.06
2023-04-12T18:00:37.462Z,98600.53
2023-04-12T18:06:34.272Z,98613.63
2023-04-12T18:09:16.756Z,98608.38
2023-04-12T18:12:28.337Z,98613.63
2023-04-12T18:15:06.039Z,98615.59
2023-04-12T18:20:30.657Z,98627.00
2023-04-12T18:26:15.232Z,98630.44
2023-04-12T18:28:50.763Z,98652.69
2023-04-12T18:31:27.003Z,98643.53
2023-04-12T18:34:03.357Z,98639.09
2023-04-12T18:36:33.976Z,98648.25
2023-04-12T18:39:07.068Z,98646.31
2023-04-12T18:41:35.261Z,98646.31
2023-04-12T18:44:03.891Z,98652.50
2023-04-12T18:46:31.913Z,98640.91
2023-04-12T18:49:00.605Z,98645.63
2023-04-12T18:51:30.696Z,98644.81
2023-04-12T18:54:18.979Z,98654.78
2023-04-12T18:56:46.848Z,98657.25
2023-04-12T18:59:25.516Z,98655.09
2023-04-12T19:01:53.413Z,98662.63
2023-04-12T19:04:20.992Z,98664.25
2023-04-12T19:06:49.003Z,98665.41
2023-04-12T19:09:17.442Z,98674.91
2023-04-12T19:11:44.864Z,98680.44
2023-04-12T19:14:12.518Z,98680.09
2023-04-12T19:16:40.135Z,98686.00
2023-04-12T19:19:07.794Z,98684.84
2023-04-12T19:21:36.112Z,98689.41
2023-04-12T19:24:04.167Z,98695.97
2023-04-12T19:26:32.502Z,98704.94
2023-04-12T19:29:00.725Z,98710.50
2023-04-12T19:31:28.546Z,98712.16
2023-04-12T19:33:56.830Z,98722.75
2023-04-12T19:36:25.126Z,98718.84
2023-04-12T19:38:53.399Z,98725.88
2023-04-12T19:41:22.021Z,98742.53
2023-04-12T19:43:51.025Z,98743.34
2023-04-12T19:46:18.983Z,98736.16
2023-04-12T19:48:47.039Z,98737.28
2023-04-12T19:51:15.813Z,98745.63
2023-04-12T19:53:43.758Z,98747.59
2023-04-12T19:56:13.399Z,98755.94
2023-04-12T19:58:42.113Z,98753.97
2023-04-12T20:01:10.404Z,98753.47
2023-04-12T20:03:39.383Z,98759.84
2023-04-12T20:06:07.120Z,98761.78
2023-04-12T20:08:36.278Z,98768.50
2023-04-12T20:11:04.313Z,98778.47
2023-04-12T20:13:32.334Z,98768.81
2023-04-12T20:16:01.872Z,98781.22
2023-04-12T20:18:30.209Z,98780.94
2023-04-12T20:20:59.311Z,98791.88
2023-04-12T20:23:27.712Z,98799.38
2023-04-12T20:25:56.190Z,98796.44
2023-04-12T20:28:24.288Z,98806.38
2023-04-12T20:30:51.879Z,98812.75
2023-04-12T20:33:21.484Z,98816.34
2023-04-12T20:35:50.977Z,98820.25
2023-04-12T20:38:19.140Z,98826.66
2023-04-12T20:40:47.433Z,98834.81
2023-04-12T20:43:16.002Z,98850.81
2023-04-12T20:45:43.743Z,98857.03
2023-04-12T20:48:11.846Z,98870.59
2023-04-12T20:50:40.020Z,98865.53
2023-04-12T20:53:09.659Z,98877.28
2023-04-12T20:55:37.135Z,98890.34
2023-04-12T20:58:06.382Z,98888.72
2023-04-12T21:00:35.075Z,98905.38
2023-04-12T21:03:03.314Z,98903.94
2023-04-12T21:05:34.076Z,98904.25
2023-04-12T21:08:01.193Z,98915.66
2023-04-12T21:10:28.812Z,98913.41
2023-04-12T21:12:55.888Z,98918.13
2023-04-12T21:15:23.125Z,98927.81
2023-04-12T21:17:52.833Z,98933.38
2023-04-12T21:20:20.284Z,98931.19
2023-04-12T21:22:48.230Z,98941.19
2023-04-12T21:25:16.984Z,98935.41
2023-04-12T21:27:45.657Z,98940.34
2023-04-12T21:30:13.260Z,98942.63
2023-04-12T21:32:41.530Z,98945.41
2023-04-12T21:35:09.091Z,98952.06
2023-04-12T21:37:37.364Z,98955.16
2023-04-12T21:40:09.612Z,98950.44
2023-04-12T21:42:37.445Z,98969.25
2023-04-12T21:45:04.855Z,98980.97
2023-04-12T21:47:32.651Z,98977.38
2023-04-12T21:49:59.672Z,98989.00
2023-04-12T21:52:27.073Z,98993.75
2023-04-12T21:54:55.089Z,98997.66
2023-04-12T21:57:22.071Z,99007.94
2023-04-12T21:59:49.214Z,99012.66
2023-04-12T22:02:16.360Z,99012.66
2023-04-12T22:04:43.913Z,99019.34
2023-04-12T22:07:13.165Z,99030.16
2023-04-12T22:09:41.674Z,99034.06
2023-04-12T22:12:08.917Z,99041.25
2023-04-12T22:14:36.906Z,99042.41
2023-04-12T22:17:04.471Z,99052.69
2023-04-12T22:19:31.717Z,99057.63
2023-04-12T22:21:58.702Z,99069.56
2023-04-12T22:24:26.660Z,99068.56
2023-04-12T22:26:57.738Z,99080.97
2023-04-12T22:29:25.668Z,99082.75
2023-04-12T22:31:53.083Z,99089.94
2023-04-12T22:34:20.049Z,99099.41
2023-04-12T22:36:51.971Z,99103.31
2023-04-12T22:39:19.328Z,99115.25
2023-04-12T22:41:49.812Z,99110.50
2023-04-12T22:44:17.744Z,99118.03
2023-04-12T22:46:48.634Z,99113.28
2023-04-12T22:49:17.224Z,99126.34
2023-04-12T22:51:44.769Z,99126.66
2023-04-12T22:54:12.377Z,99138.91
2023-04-12T22:56:45.559Z,99142.81
2023-04-12T22:59:14.596Z,99153.41
2023-04-12T23:01:42.208Z,99162.25
2023-04-12T23:04:11.793Z,99163.09
2023-04-12T23:06:40.455Z,99176.16
2023-04-12T23:09:07.762Z,99175.03
2023-04-12T23:11:35.380Z,99173.66
2023-04-12T23:14:02.963Z,99195.59
2023-04-12T23:16:30.193Z,99189.22
2023-04-12T23:18:57.949Z,99194.75
2023-04-12T23:21:24.849Z,99197.25
2023-04-12T23:23:52.935Z,99203.41
2023-04-12T23:26:20.232Z,99215.63
2023-04-12T23:28:47.800Z,99218.63
2023-04-12T23:31:15.464Z,99222.53
2023-04-12T23:33:43.501Z,99236.72
2023-04-12T23:36:11.174Z,99238.69
2023-04-12T23:38:39.113Z,99234.28
2023-04-12T23:41:07.276Z,99244.84
2023-04-12T23:43:34.990Z,99240.97
2023-04-12T23:46:03.441Z,99249.28
2023-04-12T23:48:31.922Z,99251.75
2023-04-12T23:50:59.010Z,99255.66
2023-04-12T23:53:26.274Z,99256.78
2023-04-12T23:55:53.777Z,99255.88
2023-04-12T23:58:21.350Z,99260.41
